Time;durP1;ratioP1;P1;durP2;ratioP2;P2;SDS_P1;SDS_P2;PMS_P1;PMS_P2;Temp;Humidity;BMP_temperature;BMP_pressure;BME280_temperature;BME280_humidity;BME280_pressure;Samples;Min_cycle;Max_cycle;Signal;HPM_P1;HPM_P2
2021/01/23 04:02:54;;;;;;;14.70;8.15;;;;;;;3.25;100.00;100566.40;1772137;77;21164;-72
2021/01/23 04:05:24;;;;;;;15.55;9.13;;;;;;;3.22;100.00;100571.36;1780452;79;21156;-71
2021/01/23 04:07:52;;;;;;;15.35;8.25;;;;;;;3.21;100.00;100566.31;1772092;79;21476;-71
2021/01/23 04:10:22;;;;;;;14.28;8.58;;;;;;;3.17;100.00;100565.27;1779132;79;21088;-71
2021/01/23 04:12:51;;;;;;;18.60;9.23;;;;;;;3.15;100.00;100567.18;1778787;79;20907;-73
2021/01/23 04:15:20;;;;;;;18.77;9.30;;;;;;;3.15;100.00;100564.61;1780806;79;21387;-72
2021/01/23 04:17:48;;;;;;;18.20;11.33;;;;;;;3.13;100.00;100566.48;1781080;79;21009;-72
2021/01/23 04:20:17;;;;;;;16.12;9.53;;;;;;;3.15;100.00;100567.18;1781245;79;21168;-72
2021/01/23 04:22:46;;;;;;;26.85;13.88;;;;;;;3.17;100.00;100563.17;1780764;79;21499;-70
2021/01/23 04:25:15;;;;;;;32.38;14.70;;;;;;;3.17;100.00;100565.27;1780255;79;21057;-72
2021/01/23 04:27:43;;;;;;;21.97;11.35;;;;;;;3.16;100.00;100564.94;1778203;79;21381;-70
2021/01/23 04:30:13;;;;;;;30.35;19.80;;;;;;;3.16;100.00;100561.08;1780668;79;21496;-70
2021/01/23 04:32:41;;;;;;;58.60;39.70;;;;;;;3.15;100.00;100563.31;1779001;79;21591;-71
2021/01/23 04:35:11;;;;;;;24.50;14.33;;;;;;;3.16;100.00;100562.84;1782545;79;20990;-73
2021/01/23 04:37:41;;;;;;;18.75;13.53;;;;;;;3.16;100.00;100560.27;1777686;79;21150;-71
2021/01/23 04:40:11;;;;;;;18.02;10.50;;;;;;;3.19;100.00;100566.93;1779341;79;21203;-70
2021/01/23 04:42:44;;;;;;;17.05;12.93;;;;;;;3.17;100.00;100565.27;1777386;79;21247;-73
2021/01/23 04:45:13;;;;;;;24.12;14.50;;;;;;;3.16;100.00;100562.36;1780510;79;21131;-72
2021/01/23 04:47:42;;;;;;;26.07;15.80;;;;;;;3.16;100.00;100564.94;1780341;79;21520;-72
2021/01/23 04:50:12;;;;;;;16.97;12.53;;;;;;;3.14;100.00;100570.70;1782218;79;21113;-72
2021/01/23 04:52:41;;;;;;;20.43;13.75;;;;;;;3.14;100.00;100567.28;1783780;79;21220;-71
2021/01/23 04:55:10;;;;;;;34.38;25.43;;;;;;;3.13;100.00;100569.05;1780867;79;21165;-71
2021/01/23 04:57:40;;;;;;;24.80;17.65;;;;;;;3.11;100.00;100576.11;1780335;79;21167;-71
2021/01/23 05:00:17;;;;;;;13.15;9.08;;;;;;;3.11;100.00;100577.87;1779818;78;20986;-72
2021/01/23 05:03:01;;;;;;;14.83;10.70;;;;;;;3.11;100.00;100584.31;1773600;79;21204;-72
2021/01/23 05:05:32;;;;;;;15.10;10.18;;;;;;;3.09;100.00;100584.41;1770543;79;21199;-72
2021/01/23 05:08:12;;;;;;;24.37;13.98;;;;;;;3.06;100.00;100585.95;1766202;79;21575;-72
2021/01/23 05:10:42;;;;;;;32.40;21.63;;;;;;;3.07;100.00;100591.47;1769973;79;21195;-70
2021/01/23 05:13:15;;;;;;;18.40;11.43;;;;;;;3.09;100.00;100596.48;1769460;79;21128;-73
2021/01/23 05:15:44;;;;;;;29.20;20.40;;;;;;;3.09;100.00;100585.70;1761789;79;21146;-70
2021/01/23 05:18:14;;;;;;;15.23;10.58;;;;;;;3.10;100.00;100585.23;1763171;79;21557;-71
2021/01/23 05:20:49;;;;;;;18.02;11.43;;;;;;;3.10;100.00;100588.62;1769679;79;21145;-71
2021/01/23 05:23:26;;;;;;;15.75;9.48;;;;;;;3.12;100.00;100591.90;1766619;79;21061;-70
2021/01/23 05:25:56;;;;;;;15.00;9.68;;;;;;;3.14;100.00;100586.61;1764709;79;21078;-72
2021/01/23 05:28:37;;;;;;;14.43;8.45;;;;;;;3.15;100.00;100589.07;1764548;79;21471;-71
2021/01/23 05:31:17;;;;;;;21.07;9.58;;;;;;;3.19;100.00;100586.25;1765384;79;21355;-72
2021/01/23 05:33:47;;;;;;;15.38;8.70;;;;;;;3.20;100.00;100584.01;1763097;79;21185;-73
2021/01/23 05:36:15;;;;;;;14.65;9.00;;;;;;;3.20;100.00;100578.86;1760668;79;20994;-72
2021/01/23 05:38:47;;;;;;;18.20;10.13;;;;;;;3.25;100.00;100580.57;1760921;79;21149;-69
2021/01/23 05:41:15;;;;;;;14.33;9.23;;;;;;;3.28;100.00;100577.27;1740367;79;21137;-70
2021/01/23 05:43:48;;;;;;;14.20;8.60;;;;;;;3.33;100.00;100582.87;1764773;79;22353;-69
2021/01/23 05:46:30;;;;;;;21.37;12.25;;;;;;;3.36;100.00;100582.59;1765397;79;20994;-71
2021/01/23 05:48:58;;;;;;;17.50;10.97;;;;;;;3.41;100.00;100570.64;1769609;79;22478;-70
2021/01/23 05:51:27;;;;;;;20.60;10.85;;;;;;;3.41;100.00;100570.64;1771590;79;21188;-70
2021/01/23 05:53:55;;;;;;;17.48;11.05;;;;;;;3.45;100.00;100571.16;1770552;79;20939;-72
2021/01/23 05:56:24;;;;;;;21.93;10.78;;;;;;;3.46;100.00;100574.92;1766452;79;22125;-69
2021/01/23 05:58:53;;;;;;;20.85;11.12;;;;;;;3.46;100.00;100569.77;1766149;79;21058;-71
2021/01/23 06:01:21;;;;;;;18.80;11.50;;;;;;;3.50;100.00;100565.98;1768397;79;21121;-71
2021/01/23 06:03:52;;;;;;;19.55;10.03;;;;;;;3.54;100.00;100570.41;1779858;79;21145;-72
2021/01/23 06:06:20;;;;;;;20.00;11.60;;;;;;;3.58;100.00;100566.63;1749244;79;20995;-69
2021/01/23 06:08:51;;;;;;;16.93;9.40;;;;;;;3.57;100.00;100569.67;1747912;81;21193;-70
2021/01/23 06:11:26;;;;;;;21.68;10.23;;;;;;;3.58;100.00;100568.72;1747822;79;21145;-70
2021/01/23 06:13:56;;;;;;;18.10;9.33;;;;;;;3.60;100.00;100566.03;1758504;79;21033;-70
2021/01/23 06:16:35;;;;;;;15.30;8.68;;;;;;;3.64;100.00;100564.83;1761730;79;21058;-69
2021/01/23 06:19:17;;;;;;;19.37;10.58;;;;;;;3.70;100.00;100566.86;1777944;79;21077;-69
2021/01/23 06:21:49;;;;;;;16.87;9.80;;;;;;;3.73;100.00;100564.03;1777929;79;21150;-70
2021/01/23 06:24:33;;;;;;;18.55;9.88;;;;;;;3.76;100.00;100555.22;1779142;79;21178;-70
2021/01/23 06:27:02;;;;;;;15.68;9.15;;;;;;;3.78;100.00;100554.12;1763658;79;21483;-69
2021/01/23 06:29:36;;;;;;;23.22;10.78;;;;;;;3.80;100.00;100554.02;1749256;79;21543;-71
2021/01/23 06:32:21;;;;;;;16.17;10.32;;;;;;;3.81;100.00;100555.16;1750400;79;21039;-70
2021/01/23 06:35:00;;;;;;;36.13;21.50;;;;;;;3.85;100.00;100549.27;1737951;79;21560;-70
2021/01/23 06:37:40;;;;;;;54.30;46.13;;;;;;;3.88;100.00;100548.53;1748422;79;21064;-69
2021/01/23 06:40:16;;;;;;;34.73;21.70;;;;;;;3.89;100.00;100542.41;1745568;79;21442;-69
2021/01/23 06:42:49;;;;;;;289.57;180.57;;;;;;;3.90;100.00;100544.52;1743937;81;21086;-72
2021/01/23 06:45:19;;;;;;;124.45;75.52;;;;;;;3.89;100.00;100548.05;1747109;79;21195;-70
2021/01/23 06:47:55;;;;;;;54.15;36.95;;;;;;;3.92;100.00;100552.95;1745873;79;21879;-72
2021/01/23 06:50:41;;;;;;;31.93;21.60;;;;;;;3.95;100.00;100552.69;1750177;79;21611;-74
2021/01/23 06:53:22;;;;;;;23.38;17.20;;;;;;;3.98;100.00;100547.27;1748282;79;21196;-72
2021/01/23 06:55:52;;;;;;;77.37;51.92;;;;;;;4.05;100.00;100552.69;1746156;81;21211;-71
2021/01/23 06:58:26;;;;;;;43.60;34.25;;;;;;;4.15;100.00;100553.05;1747441;79;21089;-74
2021/01/23 07:00:58;;;;;;;53.95;41.05;;;;;;;4.36;100.00;100549.07;1748216;79;21726;-75
2021/01/23 07:03:28;;;;;;;32.48;22.10;;;;;;;4.73;100.00;100548.36;1786223;77;21406;-73
2021/01/23 07:06:01;;;;;;;23.65;14.40;;;;;;;5.00;100.00;100545.07;1814599;77;21459;-73
2021/01/23 07:08:37;;;;;;;20.10;13.00;;;;;;;5.03;100.00;100538.31;1806017;79;21209;-72
2021/01/23 07:11:15;;;;;;;32.98;23.90;;;;;;;5.06;100.00;100544.49;1814876;77;21187;-74
2021/01/23 07:14:06;;;;;;;23.70;13.10;;;;;;;5.25;100.00;100535.06;1809801;77;22276;-73
2021/01/23 07:16:38;;;;;;;34.40;21.80;;;;;;;5.74;100.00;100544.23;1811047;77;21119;-72
2021/01/23 07:19:08;;;;;;;29.50;21.15;;;;;;;6.27;100.00;100549.98;1816057;77;21143;-74
2021/01/23 07:21:39;;;;;;;17.87;10.17;;;;;;;6.69;100.00;100543.37;1789722;78;21072;-74
2021/01/23 07:24:10;;;;;;;21.33;11.30;;;;;;;7.27;100.00;100542.75;1759758;77;21216;-71
2021/01/23 07:26:40;;;;;;;18.47;11.67;;;;;;;8.02;100.00;100537.19;1777231;79;21235;-71
2021/01/23 07:29:09;;;;;;;17.53;9.80;;;;;;;9.38;100.00;100534.84;1809768;77;21432;-72
2021/01/23 07:31:37;;;;;;;19.27;10.13;;;;;;;10.05;100.00;100542.66;1818405;77;21495;-71
2021/01/23 07:34:11;;;;;;;16.43;9.37;;;;;;;10.05;100.00;100542.66;1815510;77;21863;-71
2021/01/23 07:36:45;;;;;;;17.93;9.80;;;;;;;10.69;100.00;100541.39;1822199;77;22181;-70
2021/01/23 07:39:15;;;;;;;28.53;18.67;;;;;;;11.21;100.00;100543.64;1819425;77;21350;-71
2021/01/23 07:41:53;;;;;;;49.73;42.00;;;;;;;11.55;100.00;100541.77;1823135;77;21492;-69
2021/01/23 07:44:26;;;;;;;77.10;70.70;;;;;;;11.83;100.00;100540.64;1818728;77;21180;-73
2021/01/23 07:46:55;;;;;;;41.20;37.63;;;;;;;12.08;100.00;100533.75;1822193;77;20912;-74
2021/01/23 07:49:25;;;;;;;15.50;10.97;;;;;;;12.17;100.00;100537.88;1818778;77;21009;-70
2021/01/23 07:52:09;;;;;;;27.80;25.17;;;;;;;12.37;100.00;100535.44;1820774;77;21166;-70
2021/01/23 07:54:53;;;;;;;16.10;13.30;;;;;;;12.62;100.00;100529.33;1790781;78;21196;-72
2021/01/23 07:57:21;;;;;;;12.47;9.70;;;;;;;12.78;100.00;100534.27;1822019;77;21119;-71
2021/01/23 07:59:51;;;;;;;15.20;12.67;;;;;;;12.75;100.00;100524.18;1819634;77;21478;-72
2021/01/23 08:02:20;;;;;;;12.00;7.63;;;;;;;12.84;100.00;100526.98;1787447;78;21149;-71
2021/01/23 08:04:53;;;;;;;12.13;6.63;;;;;;;12.98;100.00;100523.12;1771668;79;21188;-70
2021/01/23 08:07:30;;;;;;;10.37;6.40;;;;;;;12.97;100.00;100523.62;1810517;77;21166;-69
2021/01/23 08:10:19;;;;;;;13.97;7.97;;;;;;;13.04;100.00;100527.59;1808392;78;21127;-68
2021/01/23 08:13:00;;;;;;;13.20;7.67;;;;;;;13.12;100.00;100516.47;1809434;78;21151;-72
2021/01/23 08:15:36;;;;;;;12.97;8.40;;;;;;;13.32;100.00;100513.17;1809324;78;21532;-76
2021/01/23 08:18:17;;;;;;;9.83;5.97;;;;;;;13.54;96.24;100511.25;1811175;78;21186;-72
2021/01/23 08:20:46;;;;;;;12.65;6.40;;;;;;;13.58;100.00;100508.55;1775520;79;21188;-76
2021/01/23 08:23:16;;;;;;;13.10;7.10;;;;;;;13.85;96.10;100514.16;1813670;77;21499;-75
2021/01/23 08:25:54;;;;;;;13.00;6.97;;;;;;;14.03;89.68;100508.86;1769776;79;20987;-78
2021/01/23 08:28:36;;;;;;;11.20;6.80;;;;;;;14.15;88.61;100508.58;1812475;78;20914;-82
2021/01/23 08:31:19;;;;;;;8.97;5.70;;;;;;;14.32;91.13;100509.01;1811131;77;21190;-80
2021/01/23 08:33:54;;;;;;;10.67;6.63;;;;;;;14.57;82.12;100504.78;1818281;76;21226;-82
2021/01/23 08:36:22;;;;;;;11.30;6.17;;;;;;;14.59;78.11;100509.33;1774877;79;32781;-80
2021/01/23 08:39:02;;;;;;;9.00;5.50;;;;;;;14.42;76.57;100506.77;1778453;79;21120;-81
2021/01/23 08:41:31;;;;;;;9.43;5.80;;;;;;;14.20;80.24;100506.15;1809128;77;21518;-82
2021/01/23 08:44:01;;;;;;;9.60;5.77;;;;;;;14.07;79.33;100505.64;1808434;78;21179;-82
2021/01/23 08:46:29;;;;;;;10.33;5.93;;;;;;;13.98;83.02;100500.77;1808471;78;21612;-79
2021/01/23 08:49:00;;;;;;;11.07;6.17;;;;;;;13.86;78.68;100492.69;1811708;77;21491;-79
2021/01/23 08:51:29;;;;;;;10.00;7.30;;;;;;;13.52;80.17;100501.45;1811076;78;21132;-78
2021/01/23 08:53:58;;;;;;;12.27;6.50;;;;;;;13.18;83.78;100491.31;1811671;77;21223;-77
2021/01/23 08:56:26;;;;;;;9.97;6.10;;;;;;;13.04;86.79;100485.73;1807309;78;21533;-81
2021/01/23 08:58:55;;;;;;;11.77;6.60;;;;;;;12.89;90.68;100492.38;1810896;78;20962;-79
2021/01/23 09:01:24;;;;;;;12.60;6.47;;;;;;;12.77;90.13;100498.66;1807866;78;21507;-79
2021/01/23 09:03:53;;;;;;;13.20;7.53;;;;;;;12.60;90.59;100496.00;1810867;78;21155;-79
2021/01/23 09:06:21;;;;;;;15.53;7.43;;;;;;;12.42;90.11;100491.23;1807371;78;21531;-76
2021/01/23 09:08:49;;;;;;;17.03;7.83;;;;;;;12.15;93.54;100495.43;1810185;78;21184;-78
2021/01/23 09:11:18;;;;;;;16.00;8.33;;;;;;;12.05;97.17;100494.95;1810813;78;21216;-71
2021/01/23 09:13:46;;;;;;;16.80;7.93;;;;;;;12.02;97.84;100488.80;1795812;79;21189;-76
2021/01/23 09:16:15;;;;;;;14.93;7.83;;;;;;;11.87;96.90;100490.95;1796472;79;21079;-77
2021/01/23 09:18:45;;;;;;;15.67;7.67;;;;;;;11.62;100.00;100489.64;1792433;79;20944;-77
2021/01/23 09:21:14;;;;;;;12.87;6.47;;;;;;;11.52;100.00;100502.20;1794104;79;21186;-68
2021/01/23 09:23:43;;;;;;;15.17;7.47;;;;;;;11.29;100.00;100500.52;1804965;78;21353;-76
2021/01/23 09:26:11;;;;;;;11.47;7.30;;;;;;;11.00;100.00;100509.65;1762539;79;21104;-74
2021/01/23 09:28:42;;;;;;;16.60;7.80;;;;;;;10.45;100.00;100498.58;1764848;79;21153;-74
2021/01/23 09:31:10;;;;;;;14.83;7.30;;;;;;;9.83;100.00;100502.09;1765134;81;21096;-68
2021/01/23 09:33:39;;;;;;;14.43;7.57;;;;;;;9.40;100.00;100494.36;1766035;81;22498;-75
2021/01/23 09:36:08;;;;;;;11.77;7.43;;;;;;;9.08;100.00;100493.97;1780092;79;21168;-74
2021/01/23 09:38:36;;;;;;;14.87;7.87;;;;;;;8.85;100.00;100499.06;1778778;79;22266;-73
2021/01/23 09:41:04;;;;;;;17.13;9.10;;;;;;;8.68;100.00;100497.80;1810312;77;21770;-73
2021/01/23 09:43:33;;;;;;;15.83;7.83;;;;;;;8.56;100.00;100490.49;1806236;79;22469;-73
2021/01/23 09:46:01;;;;;;;15.90;8.67;;;;;;;8.56;100.00;100490.49;1806485;78;22230;-72
2021/01/23 09:48:30;;;;;;;22.53;12.93;;;;;;;8.53;100.00;100495.55;1810538;78;21820;-72
2021/01/23 09:50:59;;;;;;;30.70;19.13;;;;;;;8.29;100.00;100489.83;1810511;78;21606;-69
2021/01/23 09:53:27;;;;;;;30.07;18.77;;;;;;;8.14;100.00;100492.25;1811051;78;22116;-73
2021/01/23 09:55:57;;;;;;;38.90;25.10;;;;;;;7.95;100.00;100495.95;1810517;78;21570;-73
2021/01/23 09:58:25;;;;;;;28.13;17.97;;;;;;;7.95;100.00;100495.95;1808677;78;21580;-73
2021/01/23 10:00:53;;;;;;;16.13;9.80;;;;;;;7.76;100.00;100494.46;1808493;78;21477;-72
2021/01/23 10:03:22;;;;;;;13.93;7.80;;;;;;;7.62;100.00;100495.09;1806304;78;21292;-72
2021/01/23 10:05:50;;;;;;;16.83;10.90;;;;;;;7.49;100.00;100479.95;1747534;79;21433;-73
2021/01/23 10:08:19;;;;;;;16.60;7.93;;;;;;;7.38;100.00;100484.62;1717184;81;21207;-73
2021/01/23 10:10:48;;;;;;;16.50;8.80;;;;;;;7.23;100.00;100478.72;1747556;79;22545;-73
2021/01/23 10:13:17;;;;;;;15.10;7.73;;;;;;;7.09;100.00;100487.59;1747857;79;21413;-72
2021/01/23 10:15:45;;;;;;;17.70;8.57;;;;;;;7.00;100.00;100478.94;1750550;79;21893;-73
2021/01/23 10:18:15;;;;;;;16.20;8.13;;;;;;;6.95;100.00;100479.89;1747651;79;21295;-72
2021/01/23 10:20:43;;;;;;;17.20;8.50;;;;;;;6.92;100.00;100478.41;1747598;79;21255;-72
2021/01/23 10:23:12;;;;;;;13.63;8.53;;;;;;;6.94;100.00;100474.39;1753463;79;21385;-69
2021/01/23 10:25:41;;;;;;;13.17;7.30;;;;;;;6.98;100.00;100475.70;1747237;79;21501;-72
2021/01/23 10:28:09;;;;;;;15.00;8.37;;;;;;;6.99;100.00;100472.95;1744265;79;21417;-72
2021/01/23 10:30:38;;;;;;;13.00;8.27;;;;;;;6.99;100.00;100477.32;1751772;79;21228;-72
2021/01/23 10:33:06;;;;;;;13.80;7.97;;;;;;;6.98;100.00;100473.92;1747496;79;21265;-72
2021/01/23 10:35:35;;;;;;;13.13;7.17;;;;;;;6.94;100.00;100467.91;1749524;79;21143;-72
2021/01/23 10:38:03;;;;;;;17.90;8.40;;;;;;;6.94;100.00;100470.50;1747650;79;21844;-72
2021/01/23 10:40:31;;;;;;;13.50;8.33;;;;;;;6.96;100.00;100465.97;1751356;79;21359;-72
2021/01/23 10:43:00;;;;;;;15.07;7.40;;;;;;;6.96;100.00;100462.89;1748439;79;21444;-71
2021/01/23 10:45:28;;;;;;;12.30;6.97;;;;;;;6.98;100.00;100466.63;1748320;79;21343;-71
2021/01/23 10:47:57;;;;;;;16.03;7.60;;;;;;;7.01;100.00;100455.97;1747350;79;21320;-71
2021/01/23 10:50:26;;;;;;;17.50;8.33;;;;;;;7.04;100.00;100455.63;1747535;79;22002;-71
2021/01/23 10:52:55;;;;;;;18.63;8.80;;;;;;;7.06;100.00;100449.34;1748533;79;21125;-71
2021/01/23 10:55:23;;;;;;;16.00;9.33;;;;;;;7.07;100.00;100452.25;1750222;79;21301;-72
2021/01/23 10:57:52;;;;;;;20.33;13.33;;;;;;;7.06;100.00;100445.45;1742692;79;21753;-72
2021/01/23 11:00:22;;;;;;;37.00;22.80;;;;;;;7.05;100.00;100448.20;1710182;81;21357;-72
2021/01/23 11:02:50;;;;;;;36.57;25.00;;;;;;;6.99;100.00;100440.55;1748045;79;21248;-71
2021/01/23 11:05:19;;;;;;;53.47;31.40;;;;;;;6.88;100.00;100444.70;1754687;79;21399;-67
2021/01/23 11:07:49;;;;;;;26.13;15.53;;;;;;;6.78;100.00;100447.88;1807337;77;21722;-70
2021/01/23 11:10:19;;;;;;;25.45;15.83;;;;;;;6.68;100.00;100443.31;1805585;77;21231;-71
2021/01/23 11:12:48;;;;;;;17.03;9.37;;;;;;;6.61;100.00;100438.41;1814969;77;21325;-71
2021/01/23 11:15:17;;;;;;;16.50;10.70;;;;;;;6.56;100.00;100437.58;1809215;77;21832;-69
2021/01/23 11:17:48;;;;;;;22.27;14.33;;;;;;;6.53;100.00;100433.50;1808417;78;22104;-74
2021/01/23 11:20:16;;;;;;;16.63;10.70;;;;;;;6.56;100.00;100433.20;1814628;77;21395;-72
2021/01/23 11:22:45;;;;;;;30.00;26.40;;;;;;;6.64;100.00;100436.81;1816756;77;21329;-71
2021/01/23 11:25:13;;;;;;;14.87;7.93;;;;;;;6.77;100.00;100437.20;1816818;77;21279;-71
2021/01/23 11:27:42;;;;;;;14.77;6.73;;;;;;;6.93;100.00;100445.08;1814177;77;21492;-70
2021/01/23 11:30:13;;;;;;;15.07;7.63;;;;;;;7.07;100.00;100434.59;1821077;77;21350;-72
2021/01/23 11:32:41;;;;;;;20.90;9.70;;;;;;;7.17;100.00;100426.22;1815780;78;21353;-72
2021/01/23 11:35:10;;;;;;;17.90;8.53;;;;;;;7.22;100.00;100428.33;1820797;77;21343;-71
2021/01/23 11:37:38;;;;;;;16.53;8.60;;;;;;;7.22;100.00;100425.73;1816607;77;21774;-72
2021/01/23 11:40:08;;;;;;;13.97;7.17;;;;;;;7.21;100.00;100422.34;1750710;79;21354;-70
2021/01/23 11:42:36;;;;;;;14.50;7.50;;;;;;;7.26;100.00;100429.64;1808117;78;21275;-70
2021/01/23 11:45:06;;;;;;;14.90;7.03;;;;;;;7.33;100.00;100431.13;1812531;78;21295;-67
2021/01/23 11:47:35;;;;;;;16.10;7.67;;;;;;;7.34;100.00;100430.96;1809013;78;21925;-71
2021/01/23 11:50:05;;;;;;;14.17;8.13;;;;;;;7.39;100.00;100431.31;1813514;78;21341;-72
2021/01/23 11:52:33;;;;;;;16.95;8.23;;;;;;;7.42;100.00;100428.88;1776939;79;21269;-71
2021/01/23 11:55:04;;;;;;;15.73;8.20;;;;;;;7.41;100.00;100428.06;1776318;79;21517;-70
2021/01/23 11:57:35;;;;;;;14.10;8.85;;;;;;;7.36;100.00;100431.62;1808027;77;22392;-71
2021/01/23 12:00:05;;;;;;;19.67;10.90;;;;;;;7.31;100.00;100436.00;1812201;78;21028;-73
2021/01/23 12:02:36;;;;;;;24.07;13.23;;;;;;;7.22;100.00;100430.92;1805367;77;21426;-71
2021/01/23 12:05:06;;;;;;;28.20;17.60;;;;;;;7.11;100.00;100432.02;1773137;79;21409;-73
2021/01/23 12:07:34;;;;;;;25.00;12.03;;;;;;;7.04;100.00;100430.52;1809641;77;21255;-71
2021/01/23 12:10:03;;;;;;;26.27;13.03;;;;;;;6.97;100.00;100438.61;1815094;78;21289;-71
2021/01/23 12:12:34;;;;;;;20.55;10.58;;;;;;;6.85;100.00;100443.72;1810263;78;21630;-70
2021/01/23 12:15:03;;;;;;;17.30;9.57;;;;;;;6.76;100.00;100436.87;1811284;78;21380;-71
2021/01/23 12:17:32;;;;;;;12.40;7.00;;;;;;;6.66;100.00;100437.45;1807976;78;22743;-71
2021/01/23 12:20:01;;;;;;;14.77;8.63;;;;;;;6.58;100.00;100446.80;1811868;78;21393;-71
2021/01/23 12:22:31;;;;;;;14.87;7.80;;;;;;;6.54;100.00;100435.12;1808849;78;21760;-73
2021/01/23 12:24:59;;;;;;;18.80;8.20;;;;;;;6.50;100.00;100441.57;1773024;79;21657;-72
2021/01/23 12:27:28;;;;;;;17.30;9.17;;;;;;;6.49;100.00;100435.27;1818962;77;21479;-72
2021/01/23 12:29:57;;;;;;;17.53;9.43;;;;;;;6.45;100.00;100436.53;1791604;78;21363;-72
2021/01/23 12:32:25;;;;;;;18.40;10.10;;;;;;;6.44;100.00;100444.78;1809840;78;21663;-72
2021/01/23 12:34:54;;;;;;;15.43;8.97;;;;;;;6.41;100.00;100446.38;1808438;78;21780;-67
2021/01/23 12:37:22;;;;;;;19.03;11.73;;;;;;;6.37;100.00;100441.66;1813577;78;21879;-71
2021/01/23 12:39:50;;;;;;;72.03;47.43;;;;;;;6.31;100.00;100437.88;1775343;79;22822;-71
2021/01/23 12:42:19;;;;;;;47.08;34.45;;;;;;;6.26;100.00;100452.58;1815295;78;21586;-72
2021/01/23 12:44:47;;;;;;;26.70;16.45;;;;;;;6.21;100.00;100448.34;1812833;78;21510;-72
2021/01/23 12:47:15;;;;;;;17.45;9.33;;;;;;;6.16;100.00;100442.78;1776829;79;21492;-71
2021/01/23 12:49:44;;;;;;;18.77;10.53;;;;;;;6.12;100.00;100447.92;1777132;79;21694;-71
2021/01/23 12:52:12;;;;;;;19.12;10.93;;;;;;;6.08;100.00;100444.01;1812428;77;22169;-71
2021/01/23 12:54:44;;;;;;;20.17;8.85;;;;;;;6.04;100.00;100443.98;1807649;79;21618;-71
2021/01/23 12:57:12;;;;;;;64.03;36.55;;;;;;;6.03;100.00;100443.66;1807985;78;21182;-69
2021/01/23 12:59:40;;;;;;;84.87;47.27;;;;;;;5.99;100.00;100444.92;1809246;76;21660;-73
2021/01/23 13:02:10;;;;;;;82.17;45.92;;;;;;;5.95;100.00;100442.30;1806687;78;21503;-71
2021/01/23 13:04:39;;;;;;;71.42;36.68;;;;;;;5.88;100.00;100440.73;1802311;78;21480;-71
2021/01/23 13:07:08;;;;;;;153.32;64.25;;;;;;;5.82;100.00;100437.44;1802859;78;21523;-66
2021/01/23 13:09:38;;;;;;;59.00;28.57;;;;;;;5.77;100.00;100435.30;1800254;78;21515;-71
2021/01/23 13:12:07;;;;;;;73.25;36.03;;;;;;;5.71;100.00;100437.17;1802704;78;21558;-71
2021/01/23 13:14:35;;;;;;;91.57;42.03;;;;;;;5.67;100.00;100444.89;1801167;78;21463;-72
2021/01/23 13:17:05;;;;;;;105.83;52.15;;;;;;;5.64;100.00;100445.66;1802639;77;21343;-70
2021/01/23 13:19:34;;;;;;;42.83;18.17;;;;;;;5.63;100.00;100449.22;1805338;78;21463;-73
2021/01/23 13:22:02;;;;;;;71.55;33.42;;;;;;;5.63;100.00;100449.22;1802326;78;21171;-72
2021/01/23 13:24:31;;;;;;;41.40;21.85;;;;;;;5.57;100.00;100446.27;1801226;78;21150;-71
2021/01/23 13:27:00;;;;;;;31.42;14.90;;;;;;;5.53;100.00;100449.27;1808288;78;21076;-71
2021/01/23 13:29:28;;;;;;;31.33;13.78;;;;;;;5.49;100.00;100440.17;1801057;78;21153;-70
2021/01/23 13:31:57;;;;;;;27.90;13.85;;;;;;;5.45;100.00;100437.06;1769797;79;21684;-73
2021/01/23 13:34:25;;;;;;;35.23;14.63;;;;;;;5.40;100.00;100438.47;1806905;78;20934;-70
2021/01/23 13:36:54;;;;;;;33.38;12.33;;;;;;;5.37;100.00;100433.10;1806761;78;21538;-69
2021/01/23 13:39:22;;;;;;;26.30;14.07;;;;;;;5.34;100.00;100435.52;1802393;79;21510;-66
2021/01/23 13:41:50;;;;;;;36.15;17.62;;;;;;;5.33;100.00;100434.35;1765812;79;21205;-72
2021/01/23 13:44:19;;;;;;;35.33;17.40;;;;;;;5.32;100.00;100432.25;1812066;78;21548;-69
2021/01/23 13:46:47;;;;;;;32.88;13.68;;;;;;;5.31;100.00;100440.97;1803536;79;21536;-70
2021/01/23 13:49:16;;;;;;;26.48;12.63;;;;;;;5.32;100.00;100445.17;1810303;77;22711;-70
2021/01/23 13:51:44;;;;;;;25.70;12.33;;;;;;;5.34;100.00;100447.60;1811025;77;21448;-70
2021/01/23 13:54:13;;;;;;;25.20;11.57;;;;;;;5.35;100.00;100446.67;1813686;78;21535;-70
2021/01/23 13:56:43;;;;;;;27.45;12.98;;;;;;;5.36;100.00;100443.11;1807178;78;21089;-70
2021/01/23 13:59:12;;;;;;;22.27;11.30;;;;;;;5.35;100.00;100442.30;1811079;77;21137;-70
2021/01/23 14:01:41;;;;;;;27.20;12.07;;;;;;;5.34;100.00;100441.14;1810521;77;21093;-67
2021/01/23 14:04:10;;;;;;;25.90;12.15;;;;;;;5.31;100.00;100440.16;1813603;78;21438;-72
2021/01/23 14:06:38;;;;;;;23.45;11.25;;;;;;;5.29;100.00;100440.77;1808869;78;21362;-71
2021/01/23 14:09:08;;;;;;;24.85;12.88;;;;;;;5.27;100.00;100434.46;1811819;78;20951;-70
2021/01/23 14:11:37;;;;;;;22.30;10.50;;;;;;;5.25;100.00;100442.02;1811075;78;20943;-69
2021/01/23 14:14:06;;;;;;;25.77;11.15;;;;;;;5.22;100.00;100450.86;1810000;78;21208;-70
2021/01/23 14:16:35;;;;;;;29.60;16.12;;;;;;;5.18;100.00;100444.84;1810916;77;21137;-70
2021/01/23 14:19:05;;;;;;;26.77;12.35;;;;;;;5.13;100.00;100448.66;1808875;78;21354;-71
2021/01/23 14:21:33;;;;;;;21.75;10.50;;;;;;;5.10;100.00;100442.97;1809117;78;21129;-70
2021/01/23 14:24:01;;;;;;;20.97;10.88;;;;;;;5.06;100.00;100444.21;1807483;77;21266;-70
2021/01/23 14:26:30;;;;;;;23.12;10.68;;;;;;;5.01;100.00;100438.67;1811284;78;21176;-69
2021/01/23 14:28:59;;;;;;;22.27;10.30;;;;;;;4.96;100.00;100444.72;1807399;78;21116;-70
2021/01/23 14:31:28;;;;;;;22.15;12.13;;;;;;;4.91;100.00;100437.40;1809713;78;21467;-69
2021/01/23 14:33:56;;;;;;;33.40;13.62;;;;;;;4.87;100.00;100443.33;1812618;77;21220;-70
2021/01/23 14:36:26;;;;;;;26.85;12.73;;;;;;;4.84;100.00;100441.02;1813506;78;21023;-70
2021/01/23 14:38:54;;;;;;;28.32;11.28;;;;;;;4.80;100.00;100450.00;1806645;79;21454;-70
2021/01/23 14:41:23;;;;;;;29.37;13.18;;;;;;;4.80;100.00;100451.78;1774747;79;21105;-66
2021/01/23 14:43:51;;;;;;;31.70;14.70;;;;;;;4.79;100.00;100444.99;1811506;78;21288;-70
2021/01/23 14:46:19;;;;;;;30.32;14.15;;;;;;;4.77;100.00;100451.60;1812258;78;21107;-73
2021/01/23 14:48:48;;;;;;;39.90;22.87;;;;;;;4.76;100.00;100452.53;1775107;79;21018;-70
2021/01/23 14:51:17;;;;;;;100.72;73.25;;;;;;;4.77;100.00;100451.60;1810790;79;21032;-71
2021/01/23 14:53:46;;;;;;;71.85;41.60;;;;;;;4.77;100.00;100450.31;1808693;78;21034;-71
2021/01/23 14:56:15;;;;;;;200.20;117.10;;;;;;;4.75;100.00;100450.91;1777282;79;21344;-71
2021/01/23 14:58:45;;;;;;;770.77;451.40;;;;;;;4.74;100.00;100448.00;1806968;78;21064;-70
2021/01/23 15:01:14;;;;;;;663.25;483.07;;;;;;;4.74;100.00;100456.23;1808880;78;21058;-66
2021/01/23 15:03:42;;;;;;;146.35;99.20;;;;;;;4.73;100.00;100454.58;1774088;79;21108;-71
2021/01/23 15:06:10;;;;;;;80.77;47.10;;;;;;;4.73;100.00;100462.33;1817952;77;21191;-71
2021/01/23 15:08:40;;;;;;;210.50;186.35;;;;;;;4.72;100.00;100456.83;1814135;78;21187;-71
2021/01/23 15:11:08;;;;;;;50.75;31.27;;;;;;;4.73;100.00;100449.41;1817892;77;21143;-72
2021/01/23 15:13:37;;;;;;;44.33;20.05;;;;;;;4.74;100.00;100454.46;1806353;78;21132;-67
2021/01/23 15:16:06;;;;;;;51.60;22.05;;;;;;;4.74;100.00;100448.48;1817287;77;21846;-72
2021/01/23 15:18:35;;;;;;;74.42;41.35;;;;;;;4.74;100.00;100460.10;1812815;77;21099;-72
2021/01/23 15:21:05;;;;;;;73.28;46.18;;;;;;;4.74;100.00;100458.33;1817064;77;22101;-72
2021/01/23 15:23:33;;;;;;;128.72;66.40;;;;;;;4.74;100.00;100464.79;1815919;76;21124;-68
2021/01/23 15:26:02;;;;;;;83.78;43.65;;;;;;;4.74;100.00;100458.81;1818893;77;21194;-71
2021/01/23 15:28:32;;;;;;;94.62;45.43;;;;;;;4.73;100.00;100460.55;1817720;77;21115;-70